createdAt,value
2019-03-09T00:00:52.440Z,61.27
2019-03-09T00:02:00.250Z,61.23
2019-03-09T00:03:05.504Z,61.15
2019-03-09T00:04:16.594Z,61.19
2019-03-09T00:05:21.587Z,61.18
2019-03-09T00:06:27.045Z,61.07
2019-03-09T00:07:32.404Z,61.04
2019-03-09T00:08:37.587Z,60.99
2019-03-09T00:09:42.540Z,60.96
2019-03-09T00:10:47.650Z,60.86
2019-03-09T00:11:52.719Z,60.78
2019-03-09T00:12:58.544Z,60.68
2019-03-09T00:14:03.900Z,60.75
2019-03-09T00:15:09.235Z,60.73
2019-03-09T00:16:14.971Z,60.69
2019-03-09T00:17:20.182Z,60.65
2019-03-09T00:18:25.167Z,60.56
2019-03-09T00:19:30.217Z,60.40
2019-03-09T00:20:35.307Z,60.40
2019-03-09T00:21:40.622Z,60.46
2019-03-09T00:22:48.443Z,60.51
2019-03-09T00:24:10.895Z,60.57
2019-03-09T00:25:23.381Z,60.71
2019-03-09T00:26:42.302Z,60.79
2019-03-09T00:28:01.793Z,60.90
2019-03-09T00:29:10.968Z,61.05
2019-03-09T00:30:29.490Z,61.24
2019-03-09T00:31:38.265Z,61.39
2019-03-09T00:32:43.419Z,61.57
2019-03-09T00:33:48.616Z,61.77
2019-03-09T00:34:53.663Z,61.97
2019-03-09T00:35:58.994Z,62.21
2019-03-09T00:37:04.059Z,62.48
2019-03-09T00:38:09.345Z,62.82
2019-03-09T00:39:17.631Z,63.05
2019-03-09T00:40:22.934Z,63.24
2019-03-09T00:41:28.020Z,63.44
2019-03-09T00:42:33.201Z,63.63
2019-03-09T00:43:38.248Z,63.89
2019-03-09T00:44:43.199Z,64.03
2019-03-09T00:45:48.472Z,64.13
2019-03-09T00:46:53.716Z,64.21
2019-03-09T00:47:58.908Z,64.36
2019-03-09T00:49:03.950Z,64.46
2019-03-09T00:50:09.679Z,64.57
2019-03-09T00:51:14.825Z,64.70
2019-03-09T00:52:19.944Z,64.79
2019-03-09T00:53:24.991Z,64.96
2019-03-09T00:54:30.512Z,65.21
2019-03-09T00:55:35.700Z,65.38
2019-03-09T00:56:40.991Z,65.57
2019-03-09T00:57:46.452Z,65.78
2019-03-09T00:58:51.511Z,65.92
2019-03-09T00:59:58.087Z,66.04
2019-03-09T01:01:03.221Z,65.93
2019-03-09T01:02:08.467Z,65.93
2019-03-09T01:03:13.908Z,66.53
2019-03-09T01:04:19.598Z,66.68
2019-03-09T01:05:24.706Z,66.82
2019-03-09T01:06:29.844Z,67.07
2019-03-09T01:07:35.113Z,67.33
2019-03-09T01:08:40.259Z,68.20
2019-03-09T01:09:45.314Z,68.20
2019-03-09T01:10:50.408Z,67.84
2019-03-09T01:11:55.550Z,67.98
2019-03-09T01:13:00.955Z,68.06
2019-03-09T01:14:06.430Z,68.20
2019-03-09T01:15:11.853Z,68.26
2019-03-09T01:16:16.962Z,68.40
2019-03-09T01:17:22.034Z,68.47
2019-03-09T01:18:27.085Z,68.57
2019-03-09T01:19:32.433Z,68.61
2019-03-09T01:20:37.518Z,68.62
2019-03-09T01:21:42.575Z,68.77
2019-03-09T01:22:47.762Z,68.87
2019-03-09T01:23:52.926Z,68.96
2019-03-09T01:24:58.032Z,69.01
2019-03-09T01:26:03.135Z,69.10
2019-03-09T01:27:08.362Z,69.20
2019-03-09T01:28:13.495Z,69.22
2019-03-09T01:29:18.530Z,69.36
2019-03-09T01:30:24.083Z,69.47
2019-03-09T01:31:29.401Z,69.62
2019-03-09T01:32:34.754Z,69.61
2019-03-09T01:33:39.891Z,69.61
2019-03-09T01:34:45.277Z,70.11
2019-03-09T01:35:50.443Z,70.23
2019-03-09T01:36:55.573Z,70.47
2019-03-09T01:38:00.739Z,70.47
2019-03-09T01:39:07.076Z,70.44
2019-03-09T01:40:12.494Z,70.48
2019-03-09T01:41:17.638Z,70.53
2019-03-09T01:42:22.819Z,70.53
2019-03-09T01:43:27.861Z,70.60
2019-03-09T01:44:33.020Z,70.68
2019-03-09T01:45:38.282Z,70.77
2019-03-09T01:46:43.359Z,70.82
2019-03-09T01:47:48.530Z,70.87
2019-03-09T01:48:53.842Z,70.93
2019-03-09T01:49:59.188Z,70.95
2019-03-09T01:51:04.342Z,70.96
2019-03-09T01:52:09.503Z,70.99
2019-03-09T01:53:14.582Z,70.98
2019-03-09T01:54:19.695Z,70.94
2019-03-09T01:55:24.707Z,70.93
2019-03-09T01:56:29.851Z,70.90
2019-03-09T01:57:35.512Z,70.90
2019-03-09T01:58:40.673Z,70.86
2019-03-09T01:59:46.104Z,70.88
2019-03-09T02:00:51.375Z,70.89
2019-03-09T02:01:56.698Z,70.89
2019-03-09T02:03:01.887Z,71.03
2019-03-09T02:04:06.995Z,71.16
2019-03-09T02:05:12.535Z,71.33
2019-03-09T02:06:17.703Z,71.90
2019-03-09T02:07:23.092Z,71.90
2019-03-09T02:08:28.141Z,71.54
2019-03-09T02:09:33.182Z,71.54
2019-03-09T02:10:38.311Z,71.69
2019-03-09T02:11:43.331Z,72.04
2019-03-09T02:12:48.452Z,71.52
2019-03-09T02:13:53.607Z,71.75
2019-03-09T02:14:58.621Z,71.75
2019-03-09T02:16:04.055Z,71.96
2019-03-09T02:17:09.339Z,71.41
2019-03-09T02:18:14.820Z,72.00
2019-03-09T02:19:20.120Z,72.01
2019-03-09T02:20:25.614Z,72.08
2019-03-09T02:21:30.652Z,72.16
2019-03-09T02:22:35.709Z,72.19
2019-03-09T02:23:41.152Z,72.24
2019-03-09T02:24:46.680Z,72.37
2019-03-09T02:25:51.713Z,72.50
2019-03-09T02:26:56.837Z,72.50
2019-03-09T02:28:01.851Z,72.77
2019-03-09T02:29:07.017Z,72.82
2019-03-09T02:30:12.411Z,72.84
2019-03-09T02:31:17.443Z,72.85
2019-03-09T02:32:23.093Z,72.80
2019-03-09T02:33:28.413Z,72.79
2019-03-09T02:34:33.481Z,72.89
2019-03-09T02:35:38.601Z,72.96
2019-03-09T02:36:43.879Z,72.97
2019-03-09T02:37:49.106Z,73.04
2019-03-09T02:39:00.933Z,73.14
2019-03-09T02:40:09.762Z,73.21
2019-03-09T02:41:14.961Z,73.28
2019-03-09T02:42:20.011Z,73.36
2019-03-09T02:43:26.128Z,74.09
2019-03-09T02:44:31.200Z,74.09
2019-03-09T02:45:36.604Z,73.74
2019-03-09T02:46:41.973Z,73.89
2019-03-09T02:47:47.456Z,73.96
2019-03-09T02:48:52.511Z,73.99
2019-03-09T02:49:57.531Z,74.20
2019-03-09T02:51:02.554Z,74.05
2019-03-09T02:52:07.649Z,74.17
2019-03-09T02:53:12.730Z,74.20
2019-03-09T02:54:17.771Z,74.30
2019-03-09T02:55:22.853Z,74.45
2019-03-09T02:56:28.109Z,74.42
2019-03-09T02:57:33.083Z,74.42
2019-03-09T02:58:38.190Z,74.85
2019-03-09T02:59:43.570Z,74.85
2019-03-09T03:00:52.936Z,74.96
2019-03-09T03:02:12.228Z,75.02
2019-03-09T03:03:17.473Z,75.10
2019-03-09T03:04:22.920Z,75.08
2019-03-09T03:05:28.236Z,75.08
2019-03-09T03:06:33.353Z,75.12
2019-03-09T03:07:38.477Z,75.10
2019-03-09T03:08:43.793Z,75.13
2019-03-09T03:09:49.198Z,75.17
2019-03-09T03:10:54.188Z,75.44
2019-03-09T03:11:59.293Z,75.44
2019-03-09T03:13:04.723Z,75.43
2019-03-09T03:14:09.925Z,75.47
2019-03-09T03:15:28.212Z,75.51
2019-03-09T03:16:33.392Z,75.55
2019-03-09T03:17:38.556Z,75.68
2019-03-09T03:18:43.771Z,75.73
2019-03-09T03:19:48.929Z,75.76
2019-03-09T03:20:54.119Z,75.87
2019-03-09T03:21:59.232Z,75.93
2019-03-09T03:23:04.683Z,75.95
2019-03-09T03:24:09.686Z,75.98
2019-03-09T03:25:15.048Z,76.08
2019-03-09T03:26:20.211Z,76.13
2019-03-09T03:27:25.490Z,76.29
2019-03-09T03:28:30.565Z,76.42
2019-03-09T03:29:35.673Z,76.57
2019-03-09T03:30:41.032Z,76.63
2019-03-09T03:31:46.168Z,76.69
2019-03-09T03:32:52.760Z,76.77
2019-03-09T03:33:57.871Z,76.87
2019-03-09T03:35:03.300Z,76.94
2019-03-09T03:36:08.561Z,76.95
2019-03-09T03:37:13.960Z,76.97
2019-03-09T03:38:19.406Z,77.08
2019-03-09T03:39:24.474Z,77.07
2019-03-09T03:40:29.805Z,76.75
2019-03-09T03:41:34.804Z,76.75
2019-03-09T03:42:39.920Z,77.23
2019-03-09T03:43:45.196Z,77.38
2019-03-09T03:44:50.404Z,77.48
2019-03-09T03:45:55.740Z,77.55
2019-03-09T03:47:01.171Z,77.66
2019-03-09T03:48:06.324Z,77.68
2019-03-09T03:49:11.499Z,77.62
2019-03-09T03:50:16.624Z,77.58
2019-03-09T03:51:21.680Z,77.68
2019-03-09T03:52:26.768Z,77.82
2019-03-09T03:53:32.197Z,77.86
2019-03-09T03:54:37.343Z,77.93
2019-03-09T03:55:42.501Z,77.99
2019-03-09T03:56:47.764Z,78.03
2019-03-09T03:57:52.950Z,78.05
2019-03-09T03:58:58.102Z,78.06
2019-03-09T04:00:03.306Z,78.17
2019-03-09T04:01:08.431Z,78.30
2019-03-09T04:02:13.685Z,78.36
2019-03-09T04:03:18.885Z,78.45
2019-03-09T04:04:24.033Z,78.47
2019-03-09T04:05:29.213Z,78.50
2019-03-09T04:06:34.450Z,78.53
2019-03-09T04:07:40.062Z,78.66
2019-03-09T04:08:45.238Z,78.81
2019-03-09T04:09:50.724Z,78.81
2019-03-09T04:10:55.767Z,78.88
2019-03-09T04:12:00.917Z,78.98
2019-03-09T04:13:06.016Z,79.07
2019-03-09T04:14:11.312Z,79.52
2019-03-09T04:15:16.496Z,79.52
2019-03-09T04:16:21.815Z,79.10
2019-03-09T04:17:26.899Z,79.01
2019-03-09T04:18:31.926Z,79.01
2019-03-09T04:19:37.627Z,79.08
2019-03-09T04:20:42.736Z,79.12
2019-03-09T04:21:48.072Z,79.16
2019-03-09T04:22:53.397Z,79.19
2019-03-09T04:23:58.520Z,79.27
2019-03-09T04:25:03.799Z,79.24
2019-03-09T04:26:08.920Z,79.36
2019-03-09T04:27:14.011Z,79.50
2019-03-09T04:28:19.188Z,79.57
2019-03-09T04:29:24.327Z,79.63
2019-03-09T04:30:29.457Z,79.58
2019-03-09T04:31:34.577Z,79.53
2019-03-09T04:32:39.765Z,79.61
2019-03-09T04:33:44.894Z,79.69
2019-03-09T04:34:50.319Z,79.76
2019-03-09T04:35:55.680Z,79.79
2019-03-09T04:37:01.858Z,79.89
2019-03-09T04:38:07.001Z,79.95
2019-03-09T04:39:12.350Z,80.01
2019-03-09T04:40:17.549Z,80.08
2019-03-09T04:41:22.669Z,80.09
2019-03-09T04:42:27.730Z,80.11
2019-03-09T04:43:32.727Z,80.10
2019-03-09T04:44:37.989Z,80.11
2019-03-09T04:45:43.515Z,80.11
2019-03-09T04:46:48.923Z,80.10
2019-03-09T04:47:54.100Z,80.13
2019-03-09T04:48:59.394Z,80.12
2019-03-09T04:50:04.582Z,80.10
2019-03-09T04:51:09.688Z,80.05
2019-03-09T04:52:14.721Z,80.04
2019-03-09T04:53:19.919Z,80.01
2019-03-09T04:54:24.994Z,79.99
2019-03-09T04:55:30.119Z,79.93
2019-03-09T04:56:35.239Z,79.88
2019-03-09T04:57:40.473Z,79.87
2019-03-09T04:58:45.450Z,79.85
2019-03-09T04:59:50.810Z,79.83
2019-03-09T05:00:56.174Z,79.84
2019-03-09T05:02:01.129Z,79.82
2019-03-09T05:03:06.079Z,79.70
2019-03-09T05:04:43.384Z,79.62
2019-03-09T05:05:48.486Z,79.58
2019-03-09T05:06:53.548Z,79.47
2019-03-09T05:08:37.663Z,79.46
2019-03-09T05:10:10.717Z,79.48
2019-03-09T05:11:19.406Z,79.48
2019-03-09T05:12:24.419Z,79.42
2019-03-09T05:13:32.906Z,79.42
2019-03-09T05:14:37.895Z,79.46
2019-03-09T05:15:43.118Z,79.44
2019-03-09T05:16:48.224Z,79.46
2019-03-09T05:17:53.516Z,79.43
2019-03-09T05:19:00.884Z,79.41
2019-03-09T05:20:06.284Z,79.34
2019-03-09T05:21:11.371Z,79.34
2019-03-09T05:22:16.391Z,79.32
2019-03-09T05:23:21.390Z,79.37
2019-03-09T05:24:26.379Z,79.37
2019-03-09T05:25:31.451Z,79.08
2019-03-09T05:26:36.889Z,79.06
2019-03-09T05:27:42.050Z,78.99
2019-03-09T05:28:47.121Z,78.97
2019-03-09T05:29:52.168Z,79.04
2019-03-09T05:30:57.393Z,79.12
2019-03-09T05:32:04.565Z,79.11
2019-03-09T05:33:09.927Z,79.03
2019-03-09T05:34:15.202Z,78.98
2019-03-09T05:35:20.472Z,78.95
2019-03-09T05:36:25.585Z,78.94
2019-03-09T05:37:30.689Z,78.90
2019-03-09T05:38:35.685Z,78.91
2019-03-09T05:39:41.052Z,78.91
2019-03-09T05:40:46.306Z,78.86
2019-03-09T05:41:51.340Z,78.81
2019-03-09T05:42:56.596Z,78.81
2019-03-09T05:44:02.035Z,78.84
2019-03-09T05:45:07.355Z,78.76
2019-03-09T05:46:12.292Z,78.66
2019-03-09T05:47:17.440Z,78.58
2019-03-09T05:48:22.830Z,78.50
2019-03-09T05:49:27.876Z,78.47
2019-03-09T05:50:33.273Z,78.42
2019-03-09T05:51:38.818Z,78.37
2019-03-09T05:52:44.391Z,78.34
2019-03-09T05:53:49.460Z,78.32
2019-03-09T05:54:54.573Z,78.28
2019-03-09T05:55:59.966Z,78.29
2019-03-09T05:57:05.098Z,78.29
2019-03-09T05:58:10.209Z,78.25
2019-03-09T05:59:15.177Z,78.20
2019-03-09T06:00:20.320Z,78.21
2019-03-09T06:01:25.529Z,77.99
2019-03-09T06:02:30.645Z,77.99
2019-03-09T06:03:36.134Z,78.21
2019-03-09T06:04:41.467Z,78.23
2019-03-09T06:05:55.046Z,78.24
2019-03-09T06:07:00.110Z,78.29
2019-03-09T06:08:05.590Z,78.39
2019-03-09T06:09:10.546Z,78.48
2019-03-09T06:10:15.550Z,78.48
2019-03-09T06:11:20.877Z,78.44
2019-03-09T06:12:25.922Z,78.44
2019-03-09T06:13:30.918Z,78.41
2019-03-09T06:14:36.125Z,78.09
2019-03-09T06:15:41.356Z,78.09
2019-03-09T06:16:46.471Z,78.29
2019-03-09T06:17:51.537Z,78.28
2019-03-09T06:18:56.506Z,78.34
2019-03-09T06:20:01.853Z,78.40
2019-03-09T06:21:07.114Z,78.50
2019-03-09T06:22:12.202Z,78.61
2019-03-09T06:23:17.306Z,78.70
2019-03-09T06:24:22.543Z,78.76
2019-03-09T06:25:27.676Z,78.84
2019-03-09T06:26:32.631Z,78.83
2019-03-09T06:27:37.750Z,78.83
2019-03-09T06:28:42.718Z,78.79
2019-03-09T06:29:47.825Z,78.75
2019-03-09T06:30:53.497Z,78.75
2019-03-09T06:32:41.340Z,78.72
2019-03-09T06:33:48.024Z,78.60
2019-03-09T06:34:53.225Z,78.72
2019-03-09T06:36:48.327Z,78.79
2019-03-09T06:38:02.593Z,78.88
2019-03-09T06:39:40.098Z,78.84
2019-03-09T06:40:45.108Z,78.84
2019-03-09T06:42:00.812Z,78.76
2019-03-09T06:43:05.904Z,78.66
2019-03-09T06:44:11.184Z,78.61
2019-03-09T06:45:17.733Z,78.53
2019-03-09T06:46:23.074Z,78.46
2019-03-09T06:47:28.444Z,78.35
2019-03-09T06:48:33.925Z,78.35
2019-03-09T06:49:39.827Z,78.30
2019-03-09T06:50:45.365Z,78.23
2019-03-09T06:51:51.222Z,78.17
2019-03-09T06:52:57.035Z,78.12
2019-03-09T06:54:02.075Z,78.07
2019-03-09T06:55:08.564Z,77.99
2019-03-09T06:56:13.669Z,77.88
2019-03-09T06:57:19.425Z,77.88
2019-03-09T06:58:24.628Z,77.84
2019-03-09T06:59:29.624Z,77.82
2019-03-09T07:00:37.349Z,77.80
2019-03-09T07:01:42.658Z,77.77
2019-03-09T07:02:48.008Z,77.77
2019-03-09T07:03:53.342Z,77.73
2019-03-09T07:04:58.643Z,77.71
2019-03-09T07:06:03.919Z,77.65
2019-03-09T07:07:09.279Z,77.59
2019-03-09T07:08:14.526Z,77.55
2019-03-09T07:09:20.076Z,77.54
2019-03-09T07:10:25.501Z,77.56
2019-03-09T07:11:31.182Z,77.57
2019-03-09T07:12:36.752Z,77.57
2019-03-09T07:13:52.146Z,77.57
2019-03-09T07:15:45.044Z,77.53
2019-03-09T07:16:50.248Z,77.51
2019-03-09T07:18:03.727Z,77.39
2019-03-09T07:19:09.264Z,77.40
2019-03-09T07:20:14.573Z,77.39
2019-03-09T07:21:20.136Z,77.39
2019-03-09T07:22:25.418Z,77.42
2019-03-09T07:23:30.768Z,77.36
2019-03-09T07:24:35.774Z,77.27
2019-03-09T07:25:40.863Z,77.21
2019-03-09T07:26:46.280Z,77.12
2019-03-09T07:28:02.308Z,77.13
2019-03-09T07:29:07.673Z,77.15
2019-03-09T07:30:15.344Z,77.16
2019-03-09T07:31:20.960Z,77.11
2019-03-09T07:32:26.324Z,77.01
2019-03-09T07:33:31.524Z,76.98
2019-03-09T07:34:36.659Z,76.95
2019-03-09T07:35:41.723Z,76.91
2019-03-09T07:36:46.890Z,76.90
2019-03-09T07:37:52.002Z,76.87
2019-03-09T07:38:57.441Z,76.82
2019-03-09T07:40:02.559Z,76.78
2019-03-09T07:41:07.584Z,76.73
2019-03-09T07:42:12.686Z,76.71
2019-03-09T07:43:17.732Z,76.66
2019-03-09T07:44:22.836Z,76.58
2019-03-09T07:45:28.005Z,76.53
2019-03-09T07:46:33.190Z,76.41
2019-03-09T07:47:38.271Z,76.31
2019-03-09T07:48:43.700Z,76.23
2019-03-09T07:49:48.792Z,76.20
2019-03-09T07:50:54.180Z,76.15
2019-03-09T07:51:59.217Z,76.09
2019-03-09T07:53:04.357Z,76.13
2019-03-09T07:54:09.448Z,76.19
2019-03-09T07:55:14.974Z,76.08
2019-03-09T07:56:20.036Z,76.02
2019-03-09T07:57:25.351Z,76.03
2019-03-09T07:58:30.331Z,75.94
2019-03-09T07:59:35.339Z,75.87
2019-03-09T08:00:40.405Z,75.85
2019-03-09T08:01:45.475Z,75.87
2019-03-09T08:02:50.680Z,75.86
2019-03-09T08:03:55.791Z,75.80
2019-03-09T08:05:01.029Z,75.69
2019-03-09T08:06:06.163Z,75.63
2019-03-09T08:07:11.405Z,75.57
2019-03-09T08:08:16.757Z,75.50
2019-03-09T08:09:21.749Z,75.55
2019-03-09T08:10:27.131Z,75.54
2019-03-09T08:11:32.302Z,75.51
2019-03-09T08:12:37.405Z,75.44
2019-03-09T08:13:44.345Z,75.39
2019-03-09T08:14:49.540Z,75.35
2019-03-09T08:15:54.551Z,75.32
2019-03-09T08:16:59.542Z,75.26
2019-03-09T08:18:04.644Z,75.24
2019-03-09T08:19:09.691Z,75.15
2019-03-09T08:20:16.436Z,75.09
2019-03-09T08:21:21.757Z,75.05
2019-03-09T08:22:26.811Z,75.06
2019-03-09T08:23:31.952Z,75.13
2019-03-09T08:24:36.959Z,75.12
2019-03-09T08:25:42.065Z,75.06
2019-03-09T08:26:47.242Z,75.01
2019-03-09T08:27:52.811Z,74.95
2019-03-09T08:28:58.160Z,74.96
2019-03-09T08:30:03.414Z,74.88
2019-03-09T08:31:08.650Z,74.79
2019-03-09T08:32:14.019Z,74.73
2019-03-09T08:33:19.010Z,74.60
2019-03-09T08:34:24.084Z,74.60
2019-03-09T08:35:29.122Z,74.57
2019-03-09T08:36:35.141Z,74.44
2019-03-09T08:37:40.322Z,74.42
2019-03-09T08:38:45.379Z,74.46
2019-03-09T08:39:50.382Z,74.36
2019-03-09T08:40:55.542Z,74.34
2019-03-09T08:42:00.851Z,74.31
2019-03-09T08:43:05.969Z,74.27
2019-03-09T08:44:11.072Z,74.17
2019-03-09T08:45:17.200Z,74.17
2019-03-09T08:46:22.292Z,74.14
2019-03-09T08:47:27.538Z,74.05
2019-03-09T08:48:32.913Z,74.01
2019-03-09T08:49:37.947Z,73.99
2019-03-09T08:50:43.364Z,73.90
2019-03-09T08:51:48.756Z,73.83
2019-03-09T08:52:53.914Z,73.92
2019-03-09T08:53:59.090Z,73.89
2019-03-09T08:55:04.640Z,73.80
2019-03-09T08:56:09.631Z,73.77
2019-03-09T08:57:14.885Z,73.72
2019-03-09T08:58:20.259Z,73.63
2019-03-09T08:59:25.344Z,73.46
2019-03-09T09:00:32.131Z,73.44
2019-03-09T09:01:37.346Z,73.49
2019-03-09T09:02:42.424Z,73.44
2019-03-09T09:03:47.518Z,73.34
2019-03-09T09:04:52.645Z,73.20
2019-03-09T09:05:58.484Z,73.08
2019-03-09T09:07:03.475Z,73.09
2019-03-09T09:08:08.527Z,72.98
2019-03-09T09:09:13.822Z,73.02
2019-03-09T09:10:18.955Z,72.94
2019-03-09T09:11:23.963Z,72.88
2019-03-09T09:12:29.047Z,72.80
2019-03-09T09:13:34.346Z,72.74
2019-03-09T09:14:39.380Z,72.71
2019-03-09T09:15:44.449Z,72.63
2019-03-09T09:16:49.818Z,72.46
2019-03-09T09:17:54.889Z,72.25
2019-03-09T09:18:59.956Z,72.21
2019-03-09T09:20:05.842Z,72.26
2019-03-09T09:21:10.999Z,72.19
2019-03-09T09:22:16.161Z,72.09
2019-03-09T09:23:21.530Z,72.04
2019-03-09T09:24:26.657Z,71.95
2019-03-09T09:25:31.610Z,71.91
2019-03-09T09:26:37.059Z,71.94
2019-03-09T09:27:42.263Z,71.88
2019-03-09T09:28:47.353Z,71.77
2019-03-09T09:29:52.780Z,71.75
2019-03-09T09:30:58.302Z,71.79
2019-03-09T09:32:03.426Z,71.61
2019-03-09T09:33:08.544Z,71.68
2019-03-09T09:34:13.577Z,71.62
2019-03-09T09:35:18.932Z,71.58
2019-03-09T09:36:24.693Z,71.52
2019-03-09T09:37:29.920Z,71.49
2019-03-09T09:38:34.996Z,71.50
2019-03-09T09:39:40.031Z,71.42
2019-03-09T09:40:45.249Z,71.34
2019-03-09T09:41:50.655Z,71.08
2019-03-09T09:42:55.859Z,71.09
2019-03-09T09:44:00.964Z,71.08
2019-03-09T09:45:07.027Z,70.95
2019-03-09T09:46:12.231Z,70.81
2019-03-09T09:47:17.392Z,70.70
2019-03-09T09:48:22.817Z,70.62
2019-03-09T09:49:27.952Z,70.64
2019-03-09T09:50:33.109Z,70.65
2019-03-09T09:51:38.198Z,70.47
2019-03-09T09:52:43.394Z,70.46
2019-03-09T09:53:48.487Z,70.44
2019-03-09T09:54:53.855Z,70.39
2019-03-09T09:55:59.118Z,70.36
2019-03-09T09:57:04.149Z,70.29
2019-03-09T09:58:09.264Z,70.08
2019-03-09T09:59:14.679Z,70.18
2019-03-09T10:00:24.444Z,70.16
2019-03-09T10:01:29.558Z,70.03
2019-03-09T10:02:34.647Z,69.92
2019-03-09T10:03:40.331Z,69.82
2019-03-09T10:04:45.436Z,69.76
2019-03-09T10:05:50.633Z,69.73
2019-03-09T10:06:55.608Z,69.62
2019-03-09T10:08:00.664Z,69.50
2019-03-09T10:09:07.020Z,69.42
2019-03-09T10:10:13.867Z,69.37
2019-03-09T10:11:19.265Z,69.30
2019-03-09T10:12:24.341Z,69.18
2019-03-09T10:13:29.470Z,69.10
2019-03-09T10:14:34.576Z,68.94
2019-03-09T10:15:39.854Z,68.91
2019-03-09T10:16:44.899Z,68.86
2019-03-09T10:17:50.066Z,68.79
2019-03-09T10:18:55.335Z,68.68
2019-03-09T10:20:00.341Z,68.67
2019-03-09T10:21:05.459Z,68.57
2019-03-09T10:22:10.528Z,68.44
2019-03-09T10:23:15.572Z,68.25
2019-03-09T10:24:20.659Z,68.22
2019-03-09T10:25:25.839Z,67.92
2019-03-09T10:26:30.831Z,67.79
2019-03-09T10:27:35.893Z,67.69
2019-03-09T10:28:41.606Z,67.71
2019-03-09T10:29:46.666Z,67.66
2019-03-09T10:30:51.713Z,67.50
2019-03-09T10:31:57.145Z,67.29
2019-03-09T10:33:02.221Z,67.07
2019-03-09T10:34:07.318Z,67.01
2019-03-09T10:35:12.768Z,66.89
2019-03-09T10:36:17.727Z,66.81
2019-03-09T10:37:22.902Z,66.47
2019-03-09T10:38:28.223Z,66.36
2019-03-09T10:39:33.479Z,66.45
2019-03-09T10:40:38.725Z,66.33
2019-03-09T10:41:43.784Z,66.38
2019-03-09T10:42:48.920Z,66.43
2019-03-09T10:43:54.014Z,66.42
2019-03-09T10:44:59.159Z,66.33
2019-03-09T10:46:04.582Z,66.16
2019-03-09T10:47:09.608Z,66.12
2019-03-09T10:48:14.898Z,65.99
2019-03-09T10:49:19.961Z,65.86
2019-03-09T10:50:26.109Z,65.65
2019-03-09T10:51:31.344Z,65.59
2019-03-09T10:52:37.125Z,65.54
2019-03-09T10:53:42.294Z,65.50
2019-03-09T10:54:47.740Z,65.33
2019-03-09T10:55:55.917Z,65.22
2019-03-09T10:57:01.138Z,65.12
2019-03-09T10:58:06.250Z,64.99
2019-03-09T10:59:11.466Z,64.86
2019-03-09T11:00:28.348Z,64.79
2019-03-09T11:01:33.568Z,64.75
2019-03-09T11:02:38.617Z,64.63
2019-03-09T11:03:43.729Z,64.24
2019-03-09T11:04:48.941Z,64.22
2019-03-09T11:05:54.148Z,64.14
2019-03-09T11:06:59.053Z,64.17
2019-03-09T11:08:04.728Z,64.02
2019-03-09T11:09:09.815Z,63.91
2019-03-09T11:10:15.108Z,63.85
2019-03-09T11:11:20.211Z,63.76
2019-03-09T11:12:25.318Z,63.64
2019-03-09T11:13:30.620Z,63.47
2019-03-09T11:14:35.726Z,63.39
2019-03-09T11:15:40.930Z,63.25
2019-03-09T11:16:45.991Z,63.05
2019-03-09T11:17:51.026Z,63.08
2019-03-09T11:18:56.090Z,63.03
2019-03-09T11:20:01.461Z,62.93
2019-03-09T11:21:06.778Z,62.89
2019-03-09T11:22:11.932Z,62.60
2019-03-09T11:23:17.034Z,62.51
2019-03-09T11:24:22.142Z,62.33
2019-03-09T11:25:27.421Z,62.13
2019-03-09T11:26:32.507Z,61.81
2019-03-09T11:27:37.742Z,61.65
2019-03-09T11:28:43.128Z,61.69
2019-03-09T11:29:48.438Z,61.55
2019-03-09T11:30:53.583Z,61.24
2019-03-09T11:31:58.882Z,61.21
2019-03-09T11:33:05.875Z,61.19
2019-03-09T11:34:10.799Z,61.24
2019-03-09T11:35:16.011Z,61.16
2019-03-09T11:36:21.116Z,60.86
2019-03-09T11:37:26.791Z,60.95
2019-03-09T11:38:31.940Z,61.12
2019-03-09T11:39:37.451Z,61.13
2019-03-09T11:40:42.641Z,61.17
2019-03-09T11:41:47.779Z,61.19
2019-03-09T11:42:53.185Z,61.15
2019-03-09T11:43:58.339Z,61.14
2019-03-09T11:45:03.601Z,61.15
2019-03-09T11:46:08.778Z,61.11
2019-03-09T11:47:13.836Z,60.88
2019-03-09T11:48:18.885Z,60.86
2019-03-09T11:49:24.057Z,60.88
2019-03-09T11:50:29.543Z,60.84
2019-03-09T11:51:34.619Z,60.80
2019-03-09T11:52:39.836Z,60.64
2019-03-09T11:53:45.205Z,60.59
2019-03-09T11:54:50.552Z,60.68
2019-03-09T11:55:55.538Z,60.64
2019-03-09T11:57:00.496Z,60.60
2019-03-09T11:58:05.645Z,60.48
2019-03-09T11:59:10.912Z,60.53
2019-03-09T12:00:19.520Z,60.43
2019-03-09T12:01:24.515Z,60.38
2019-03-09T12:02:38.527Z,60.37
2019-03-09T12:03:36.322Z,60.28
2019-03-09T12:04:46.598Z,60.19
2019-03-09T12:05:48.304Z,60.22
2019-03-09T12:06:53.473Z,60.35
2019-03-09T12:07:58.591Z,60.33
2019-03-09T12:09:05.499Z,60.42
2019-03-09T12:10:10.809Z,60.39
2019-03-09T12:11:15.886Z,60.37
2019-03-09T12:12:21.138Z,60.37
2019-03-09T12:13:26.144Z,60.25
2019-03-09T12:14:31.309Z,60.20
2019-03-09T12:15:36.467Z,60.12
2019-03-09T12:16:41.512Z,59.78
2019-03-09T12:17:46.624Z,59.46
2019-03-09T12:18:51.620Z,59.25
2019-03-09T12:20:02.701Z,59.13
2019-03-09T12:21:08.158Z,58.82
2019-03-09T12:22:13.398Z,58.63
2019-03-09T12:23:23.085Z,58.39
2019-03-09T12:24:28.161Z,58.25
2019-03-09T12:25:33.220Z,57.69
2019-03-09T12:26:38.217Z,57.39
2019-03-09T12:27:43.350Z,57.43
2019-03-09T12:28:48.686Z,57.26
2019-03-09T12:29:53.715Z,57.10
2019-03-09T12:31:01.565Z,57.03
2019-03-09T12:32:06.669Z,57.05
2019-03-09T12:33:11.767Z,56.98
2019-03-09T12:34:16.749Z,56.99
2019-03-09T12:35:21.910Z,56.95
2019-03-09T12:36:26.985Z,56.91
2019-03-09T12:37:32.103Z,56.92
2019-03-09T12:38:37.357Z,56.85
2019-03-09T12:39:42.419Z,56.80
2019-03-09T12:40:47.842Z,56.72
2019-03-09T12:41:52.907Z,56.71
2019-03-09T12:42:57.982Z,56.70
2019-03-09T12:44:03.130Z,56.68
2019-03-09T12:45:09.254Z,56.46
2019-03-09T12:46:14.585Z,56.31
2019-03-09T12:47:19.645Z,56.19
2019-03-09T12:48:24.777Z,56.16
2019-03-09T12:49:29.968Z,55.91
2019-03-09T12:50:35.157Z,55.84
2019-03-09T12:51:40.220Z,55.75
2019-03-09T12:52:45.520Z,55.68
2019-03-09T12:53:51.355Z,55.59
2019-03-09T12:54:56.528Z,55.46
2019-03-09T12:56:01.537Z,55.14
2019-03-09T12:57:06.659Z,55.03
2019-03-09T12:58:12.014Z,54.98
2019-03-09T12:59:17.486Z,54.86
2019-03-09T13:00:22.606Z,54.61
2019-03-09T13:01:27.767Z,54.25
2019-03-09T13:02:32.746Z,54.21
2019-03-09T13:03:37.976Z,54.16
2019-03-09T13:04:43.191Z,54.24
2019-03-09T13:05:48.506Z,54.23
2019-03-09T13:06:53.645Z,54.33
2019-03-09T13:07:58.770Z,54.17
2019-03-09T13:09:04.901Z,54.24
2019-03-09T13:10:10.399Z,54.43
2019-03-09T13:11:15.454Z,54.31
2019-03-09T13:12:20.581Z,54.44
2019-03-09T13:13:25.686Z,54.40
2019-03-09T13:14:31.370Z,54.40
2019-03-09T13:15:36.476Z,54.45
2019-03-09T13:16:41.560Z,54.58
2019-03-09T13:17:46.983Z,54.67
2019-03-09T13:18:52.378Z,54.55
2019-03-09T13:19:57.495Z,54.54
2019-03-09T13:21:03.168Z,54.56
2019-03-09T13:22:08.407Z,54.66
2019-03-09T13:23:13.571Z,54.74
2019-03-09T13:24:19.107Z,54.90
2019-03-09T13:25:24.348Z,54.93
2019-03-09T13:26:29.750Z,54.99
2019-03-09T13:27:34.931Z,55.07
2019-03-09T13:28:40.051Z,55.19
2019-03-09T13:29:45.237Z,55.21
2019-03-09T13:30:50.798Z,55.31
2019-03-09T13:31:55.824Z,55.40
2019-03-09T13:33:01.002Z,55.47
2019-03-09T13:34:06.365Z,55.74
2019-03-09T13:35:11.566Z,56.28
2019-03-09T13:36:16.754Z,57.11
2019-03-09T13:37:21.860Z,57.85
2019-03-09T13:38:27.000Z,58.58
2019-03-09T13:39:32.081Z,59.11
2019-03-09T13:40:37.258Z,59.37
2019-03-09T13:41:42.428Z,59.63
2019-03-09T13:42:47.489Z,59.85
2019-03-09T13:43:52.610Z,59.89
2019-03-09T13:44:57.642Z,59.91
2019-03-09T13:46:03.030Z,59.96
2019-03-09T13:47:08.108Z,59.92
2019-03-09T13:48:13.487Z,59.72
2019-03-09T13:49:18.648Z,59.68
2019-03-09T13:50:24.072Z,59.73
2019-03-09T13:51:29.187Z,59.72
2019-03-09T13:52:34.531Z,59.82
2019-03-09T13:53:39.650Z,59.92
2019-03-09T13:54:45.034Z,60.04
2019-03-09T13:55:52.102Z,60.17
2019-03-09T13:56:57.263Z,60.50
2019-03-09T13:58:02.404Z,61.01
2019-03-09T13:59:07.519Z,61.56
2019-03-09T14:00:13.909Z,62.05
2019-03-09T14:01:18.934Z,62.63
2019-03-09T14:02:24.042Z,63.29
2019-03-09T14:03:29.192Z,63.87
2019-03-09T14:04:34.711Z,64.54
2019-03-09T14:05:39.861Z,65.11
2019-03-09T14:06:45.174Z,65.65
2019-03-09T14:07:50.283Z,66.07
2019-03-09T14:08:55.615Z,66.51